sensor_id;sensor_type;location;lat;lon;timestamp;pressure;altitude;pressure_sealevel;temperature;humidity
73245;BME280;61460;41.158;-73.238;2023-03-20T00:02:00;101783.02;;;24.57;33.13
73245;BME280;61460;41.158;-73.238;2023-03-20T00:04:30;101782.10;;;24.65;33.35
73245;BME280;61460;41.158;-73.238;2023-03-20T00:07:01;101782.19;;;24.67;33.31
73245;BME280;61460;41.158;-73.238;2023-03-20T00:09:32;101793.09;;;24.76;33.29
73245;BME280;61460;41.158;-73.238;2023-03-20T00:12:03;101804.30;;;24.70;33.51
73245;BME280;61460;41.158;-73.238;2023-03-20T00:14:33;101808.39;;;24.77;33.38
73245;BME280;61460;41.158;-73.238;2023-03-20T00:17:09;101817.24;;;24.75;33.53
73245;BME280;61460;41.158;-73.238;2023-03-20T00:19:34;101824.84;;;24.79;33.46
73245;BME280;61460;41.158;-73.238;2023-03-20T00:22:05;101827.70;;;24.72;33.63
73245;BME280;61460;41.158;-73.238;2023-03-20T00:24:35;101835.06;;;24.78;33.66
73245;BME280;61460;41.158;-73.238;2023-03-20T00:27:10;101831.18;;;24.80;33.60
73245;BME280;61460;41.158;-73.238;2023-03-20T00:29:37;101841.33;;;24.90;33.49
73245;BME280;61460;41.158;-73.238;2023-03-20T00:32:10;101845.65;;;24.86;33.74
73245;BME280;61460;41.158;-73.238;2023-03-20T00:34:38;101854.94;;;24.85;33.69
73245;BME280;61460;41.158;-73.238;2023-03-20T00:37:09;101857.06;;;24.87;33.64
73245;BME280;61460;41.158;-73.238;2023-03-20T00:39:39;101866.41;;;24.90;33.71
73245;BME280;61460;41.158;-73.238;2023-03-20T00:42:18;101867.07;;;24.92;33.70
73245;BME280;61460;41.158;-73.238;2023-03-20T00:44:47;101877.40;;;24.96;33.66
73245;BME280;61460;41.158;-73.238;2023-03-20T00:47:15;101883.18;;;24.94;33.48
73245;BME280;61460;41.158;-73.238;2023-03-20T00:49:42;101884.91;;;23.86;35.54
73245;BME280;61460;41.158;-73.238;2023-03-20T00:52:13;101895.91;;;24.58;33.64
73245;BME280;61460;41.158;-73.238;2023-03-20T00:54:43;101897.43;;;24.68;33.10
73245;BME280;61460;41.158;-73.238;2023-03-20T00:57:18;101906.37;;;24.82;32.93
73245;BME280;61460;41.158;-73.238;2023-03-20T00:59:50;101908.35;;;24.85;32.97
73245;BME280;61460;41.158;-73.238;2023-03-20T01:02:15;101910.93;;;24.89;33.07
73245;BME280;61460;41.158;-73.238;2023-03-20T01:04:46;101913.98;;;24.87;33.05
73245;BME280;61460;41.158;-73.238;2023-03-20T01:07:16;101914.09;;;24.90;33.05
73245;BME280;61460;41.158;-73.238;2023-03-20T01:09:47;101919.48;;;24.84;33.03
73245;BME280;61460;41.158;-73.238;2023-03-20T01:12:17;101924.86;;;24.84;33.16
73245;BME280;61460;41.158;-73.238;2023-03-20T01:14:51;101926.35;;;24.58;33.37
73245;BME280;61460;41.158;-73.238;2023-03-20T01:17:21;101929.79;;;24.79;32.83
73245;BME280;61460;41.158;-73.238;2023-03-20T01:19:50;101938.19;;;24.86;32.76
73245;BME280;61460;41.158;-73.238;2023-03-20T01:22:20;101938.10;;;24.94;32.66
73245;BME280;61460;41.158;-73.238;2023-03-20T01:24:51;101948.38;;;24.84;32.53
73245;BME280;61460;41.158;-73.238;2023-03-20T01:27:21;101956.38;;;24.81;32.19
73245;BME280;61460;41.158;-73.238;2023-03-20T01:29:52;101960.01;;;24.85;32.27
73245;BME280;61460;41.158;-73.238;2023-03-20T01:32:23;101964.87;;;24.89;32.37
73245;BME280;61460;41.158;-73.238;2023-03-20T01:34:53;101963.83;;;24.89;32.49
73245;BME280;61460;41.158;-73.238;2023-03-20T01:37:26;101959.04;;;24.22;33.41
73245;BME280;61460;41.158;-73.238;2023-03-20T01:39:55;101961.90;;;24.40;32.82
73245;BME280;61460;41.158;-73.238;2023-03-20T01:42:25;101970.59;;;24.63;32.23
73245;BME280;61460;41.158;-73.238;2023-03-20T01:44:56;101974.31;;;24.81;32.38
73245;BME280;61460;41.158;-73.238;2023-03-20T01:47:27;101975.02;;;24.87;32.32
73245;BME280;61460;41.158;-73.238;2023-03-20T01:52:28;101985.33;;;24.95;32.44
73245;BME280;61460;41.158;-73.238;2023-03-20T01:54:58;101992.35;;;24.96;32.46
73245;BME280;61460;41.158;-73.238;2023-03-20T01:57:29;101992.70;;;24.85;32.12
73245;BME280;61460;41.158;-73.238;2023-03-20T02:00:03;101999.57;;;24.85;31.98
73245;BME280;61460;41.158;-73.238;2023-03-20T02:02:31;102002.10;;;24.94;32.14
73245;BME280;61460;41.158;-73.238;2023-03-20T02:05:03;102006.41;;;24.98;32.14
73245;BME280;61460;41.158;-73.238;2023-03-20T02:07:32;102005.23;;;24.94;32.35
73245;BME280;61460;41.158;-73.238;2023-03-20T02:10:03;102008.00;;;24.92;32.40
73245;BME280;61460;41.158;-73.238;2023-03-20T02:12:34;102013.34;;;24.88;32.48
73245;BME280;61460;41.158;-73.238;2023-03-20T02:15:05;102015.97;;;24.93;32.51
73245;BME280;61460;41.158;-73.238;2023-03-20T02:17:34;102020.95;;;24.64;32.92
73245;BME280;61460;41.158;-73.238;2023-03-20T02:20:14;102023.70;;;24.80;32.07
73245;BME280;61460;41.158;-73.238;2023-03-20T02:22:47;102027.68;;;24.91;31.63
73245;BME280;61460;41.158;-73.238;2023-03-20T02:27:42;102036.07;;;24.99;31.91
73245;BME280;61460;41.158;-73.238;2023-03-20T02:32:54;102045.86;;;24.95;32.12
73245;BME280;61460;41.158;-73.238;2023-03-20T02:37:47;102053.50;;;24.78;32.47
73245;BME280;61460;41.158;-73.238;2023-03-20T02:40:16;102055.14;;;24.62;32.38
73245;BME280;61460;41.158;-73.238;2023-03-20T02:42:45;102061.50;;;24.52;31.71
73245;BME280;61460;41.158;-73.238;2023-03-20T02:45:15;102064.04;;;23.99;32.90
73245;BME280;61460;41.158;-73.238;2023-03-20T02:47:47;102061.17;;;24.40;32.32
73245;BME280;61460;41.158;-73.238;2023-03-20T02:50:16;102064.05;;;24.46;32.72
73245;BME280;61460;41.158;-73.238;2023-03-20T02:52:47;102065.11;;;24.55;32.64
73245;BME280;61460;41.158;-73.238;2023-03-20T02:55:17;102072.29;;;24.53;32.54
73245;BME280;61460;41.158;-73.238;2023-03-20T02:57:51;102070.42;;;24.48;33.04
73245;BME280;61460;41.158;-73.238;2023-03-20T03:00:23;102069.43;;;24.45;32.84
73245;BME280;61460;41.158;-73.238;2023-03-20T03:02:49;102067.63;;;24.40;33.23
73245;BME280;61460;41.158;-73.238;2023-03-20T03:05:21;102068.55;;;24.19;32.51
73245;BME280;61460;41.158;-73.238;2023-03-20T03:07:49;102070.96;;;24.26;32.18
73245;BME280;61460;41.158;-73.238;2023-03-20T03:10:21;102070.98;;;24.32;32.58
73245;BME280;61460;41.158;-73.238;2023-03-20T03:12:50;102071.92;;;24.27;32.71
73245;BME280;61460;41.158;-73.238;2023-03-20T03:15:23;102073.79;;;24.26;32.72
73245;BME280;61460;41.158;-73.238;2023-03-20T03:17:49;102073.63;;;24.32;32.70
73245;BME280;61460;41.158;-73.238;2023-03-20T03:20:22;102077.90;;;24.26;33.00
73245;BME280;61460;41.158;-73.238;2023-03-20T03:22:51;102084.73;;;24.30;32.86
73245;BME280;61460;41.158;-73.238;2023-03-20T03:25:25;102083.90;;;24.19;32.59
73245;BME280;61460;41.158;-73.238;2023-03-20T03:27:58;102090.58;;;24.12;32.19
73245;BME280;61460;41.158;-73.238;2023-03-20T03:30:26;102091.53;;;24.07;32.32
73245;BME280;61460;41.158;-73.238;2023-03-20T03:33:05;102095.02;;;23.55;33.28
73245;BME280;61460;41.158;-73.238;2023-03-20T03:35:24;102092.25;;;24.03;32.41
73245;BME280;61460;41.158;-73.238;2023-03-20T03:37:58;102102.43;;;24.09;32.98
73245;BME280;61460;41.158;-73.238;2023-03-20T03:40:32;102095.90;;;24.11;33.05
73245;BME280;61460;41.158;-73.238;2023-03-20T03:43:00;102098.70;;;24.24;32.97
73245;BME280;61460;41.158;-73.238;2023-03-20T03:45:31;102097.72;;;24.22;32.62
73245;BME280;61460;41.158;-73.238;2023-03-20T03:48:00;102092.71;;;24.25;32.91
73245;BME280;61460;41.158;-73.238;2023-03-20T03:50:30;102095.35;;;23.95;32.76
73245;BME280;61460;41.158;-73.238;2023-03-20T03:53:01;102098.29;;;24.18;32.23
73245;BME280;61460;41.158;-73.238;2023-03-20T03:55:31;102101.29;;;24.11;32.78
73245;BME280;61460;41.158;-73.238;2023-03-20T03:58:02;102097.94;;;24.05;32.83
73245;BME280;61460;41.158;-73.238;2023-03-20T04:00:31;102101.56;;;24.04;32.93
73245;BME280;61460;41.158;-73.238;2023-03-20T04:03:02;102105.76;;;24.04;32.95
73245;BME280;61460;41.158;-73.238;2023-03-20T04:05:35;102103.91;;;24.03;33.08
73245;BME280;61460;41.158;-73.238;2023-03-20T04:08:04;102105.49;;;24.04;32.84
73245;BME280;61460;41.158;-73.238;2023-03-20T04:10:33;102103.12;;;23.88;32.76
73245;BME280;61460;41.158;-73.238;2023-03-20T04:13:03;102108.14;;;23.96;32.50
73245;BME280;61460;41.158;-73.238;2023-03-20T04:15:34;102106.76;;;23.73;33.00
73245;BME280;61460;41.158;-73.238;2023-03-20T04:18:05;102111.34;;;24.00;32.60
73245;BME280;61460;41.158;-73.238;2023-03-20T04:20:35;102121.97;;;23.97;33.00
73245;BME280;61460;41.158;-73.238;2023-03-20T04:23:06;102128.61;;;24.04;32.87
73245;BME280;61460;41.158;-73.238;2023-03-20T04:25:37;102133.40;;;24.02;33.00
73245;BME280;61460;41.158;-73.238;2023-03-20T04:28:07;102135.39;;;24.06;32.79
73245;BME280;61460;41.158;-73.238;2023-03-20T04:30:38;102129.09;;;24.00;32.93
73245;BME280;61460;41.158;-73.238;2023-03-20T04:33:09;102131.17;;;23.84;32.69
73245;BME280;61460;41.158;-73.238;2023-03-20T04:35:39;102137.70;;;23.99;32.33
73245;BME280;61460;41.158;-73.238;2023-03-20T04:38:10;102137.34;;;23.76;32.93
73245;BME280;61460;41.158;-73.238;2023-03-20T04:40:41;102135.73;;;23.49;33.66
73245;BME280;61460;41.158;-73.238;2023-03-20T04:43:12;102145.77;;;23.84;33.46
73245;BME280;61460;41.158;-73.238;2023-03-20T04:45:42;102147.91;;;23.91;33.49
73245;BME280;61460;41.158;-73.238;2023-03-20T04:48:12;102146.58;;;23.96;33.43
73245;BME280;61460;41.158;-73.238;2023-03-20T04:50:43;102149.85;;;24.04;33.44
73245;BME280;61460;41.158;-73.238;2023-03-20T04:53:14;102144.40;;;24.12;33.33
73245;BME280;61460;41.158;-73.238;2023-03-20T04:55:44;102146.58;;;23.83;33.10
73245;BME280;61460;41.158;-73.238;2023-03-20T04:58:15;102149.35;;;23.90;32.82
73245;BME280;61460;41.158;-73.238;2023-03-20T05:00:45;102156.58;;;23.89;33.36
73245;BME280;61460;41.158;-73.238;2023-03-20T05:03:16;102162.43;;;23.35;34.11
73245;BME280;61460;41.158;-73.238;2023-03-20T05:05:46;102161.51;;;23.72;33.74
73245;BME280;61460;41.158;-73.238;2023-03-20T05:08:17;102162.70;;;23.81;34.11
73245;BME280;61460;41.158;-73.238;2023-03-20T05:10:47;102163.96;;;23.95;33.91
73245;BME280;61460;41.158;-73.238;2023-03-20T05:13:18;102166.55;;;23.71;33.51
73245;BME280;61460;41.158;-73.238;2023-03-20T05:15:49;102170.63;;;23.90;32.85
73245;BME280;61460;41.158;-73.238;2023-03-20T05:18:20;102171.43;;;23.93;33.09
73245;BME280;61460;41.158;-73.238;2023-03-20T05:20:50;102172.76;;;23.94;33.19
73245;BME280;61460;41.158;-73.238;2023-03-20T05:23:20;102179.77;;;24.02;33.03
73245;BME280;61460;41.158;-73.238;2023-03-20T05:25:51;102185.02;;;24.02;33.04
73245;BME280;61460;41.158;-73.238;2023-03-20T05:28:21;102189.93;;;23.93;33.16
73245;BME280;61460;41.158;-73.238;2023-03-20T05:30:52;102192.23;;;24.00;32.75
73245;BME280;61460;41.158;-73.238;2023-03-20T05:33:23;102197.66;;;23.95;32.50
73245;BME280;61460;41.158;-73.238;2023-03-20T05:35:54;102194.23;;;23.96;32.93
73245;BME280;61460;41.158;-73.238;2023-03-20T05:38:24;102192.83;;;24.05;32.79
73245;BME280;61460;41.158;-73.238;2023-03-20T05:40:56;102197.09;;;24.05;32.89
73245;BME280;61460;41.158;-73.238;2023-03-20T05:43:25;102206.87;;;24.09;32.77
73245;BME280;61460;41.158;-73.238;2023-03-20T05:45:56;102215.34;;;24.02;32.97
73245;BME280;61460;41.158;-73.238;2023-03-20T05:48:26;102214.93;;;23.91;32.96
73245;BME280;61460;41.158;-73.238;2023-03-20T05:50:56;102222.83;;;24.05;32.29
73245;BME280;61460;41.158;-73.238;2023-03-20T05:53:26;102230.68;;;23.91;32.86
73245;BME280;61460;41.158;-73.238;2023-03-20T05:55:57;102232.05;;;23.98;33.05
73245;BME280;61460;41.158;-73.238;2023-03-20T05:58:27;102229.73;;;24.02;32.83
73245;BME280;61460;41.158;-73.238;2023-03-20T06:00:58;102229.85;;;24.08;32.77
73245;BME280;61460;41.158;-73.238;2023-03-20T06:03:28;102226.78;;;24.04;32.72
73245;BME280;61460;41.158;-73.238;2023-03-20T06:05:58;102233.93;;;23.84;32.60
73245;BME280;61460;41.158;-73.238;2023-03-20T06:08:29;102237.91;;;23.91;32.45
73245;BME280;61460;41.158;-73.238;2023-03-20T06:10:59;102241.16;;;23.44;33.56
73245;BME280;61460;41.158;-73.238;2023-03-20T06:13:29;102240.14;;;23.54;33.65
73245;BME280;61460;41.158;-73.238;2023-03-20T06:16:00;102244.56;;;23.84;33.38
73245;BME280;61460;41.158;-73.238;2023-03-20T06:18:30;102251.78;;;23.89;33.32
73245;BME280;61460;41.158;-73.238;2023-03-20T06:21:00;102248.46;;;23.89;33.28
73245;BME280;61460;41.158;-73.238;2023-03-20T06:23:30;102249.70;;;23.93;33.08
73245;BME280;61460;41.158;-73.238;2023-03-20T06:26:01;102249.24;;;23.87;33.03
73245;BME280;61460;41.158;-73.238;2023-03-20T06:28:31;102256.18;;;23.69;32.98
73245;BME280;61460;41.158;-73.238;2023-03-20T06:31:02;102260.60;;;23.83;32.78
73245;BME280;61460;41.158;-73.238;2023-03-20T06:33:32;102258.91;;;23.62;33.28
73245;BME280;61460;41.158;-73.238;2023-03-20T06:36:03;102251.27;;;23.39;34.01
73245;BME280;61460;41.158;-73.238;2023-03-20T06:38:33;102260.26;;;23.81;33.83
73245;BME280;61460;41.158;-73.238;2023-03-20T06:41:04;102260.17;;;23.89;33.54
73245;BME280;61460;41.158;-73.238;2023-03-20T06:43:34;102264.37;;;23.96;33.57
73245;BME280;61460;41.158;-73.238;2023-03-20T06:46:06;102261.53;;;23.90;33.17
73245;BME280;61460;41.158;-73.238;2023-03-20T06:48:36;102260.08;;;23.60;33.47
73245;BME280;61460;41.158;-73.238;2023-03-20T06:51:06;102262.84;;;23.88;32.79
73245;BME280;61460;41.158;-73.238;2023-03-20T06:53:36;102258.47;;;23.87;33.04
73245;BME280;61460;41.158;-73.238;2023-03-20T06:56:08;102261.61;;;23.87;33.06
73245;BME280;61460;41.158;-73.238;2023-03-20T06:58:37;102260.12;;;23.95;33.11
73245;BME280;61460;41.158;-73.238;2023-03-20T07:01:09;102253.58;;;23.15;34.46
73245;BME280;61460;41.158;-73.238;2023-03-20T07:03:38;102252.54;;;23.45;34.39
73245;BME280;61460;41.158;-73.238;2023-03-20T07:06:09;102254.16;;;23.53;33.48
73245;BME280;61460;41.158;-73.238;2023-03-20T07:08:39;102254.10;;;23.65;32.76
73245;BME280;61460;41.158;-73.238;2023-03-20T07:11:10;102255.19;;;23.76;33.25
73245;BME280;61460;41.158;-73.238;2023-03-20T07:13:40;102260.00;;;23.72;33.23
73245;BME280;61460;41.158;-73.238;2023-03-20T07:16:10;102256.00;;;23.73;33.26
73245;BME280;61460;41.158;-73.238;2023-03-20T07:18:40;102255.36;;;23.69;33.37
73245;BME280;61460;41.158;-73.238;2023-03-20T07:21:16;102252.13;;;23.78;33.24
73245;BME280;61460;41.158;-73.238;2023-03-20T07:23:41;102254.03;;;23.79;33.11
73245;BME280;61460;41.158;-73.238;2023-03-20T07:26:12;102251.08;;;23.69;33.28
73245;BME280;61460;41.158;-73.238;2023-03-20T07:28:42;102256.03;;;23.84;32.66
73245;BME280;61460;41.158;-73.238;2023-03-20T07:31:19;102257.31;;;23.60;33.48
73245;BME280;61460;41.158;-73.238;2023-03-20T07:33:43;102257.14;;;23.78;33.57
73245;BME280;61460;41.158;-73.238;2023-03-20T07:36:14;102253.55;;;23.73;33.50
73245;BME280;61460;41.158;-73.238;2023-03-20T07:38:44;102257.37;;;23.81;33.16
73245;BME280;61460;41.158;-73.238;2023-03-20T07:41:15;102256.18;;;23.75;33.09
73245;BME280;61460;41.158;-73.238;2023-03-20T07:43:45;102256.69;;;23.54;32.91
73245;BME280;61460;41.158;-73.238;2023-03-20T07:46:16;102255.84;;;23.83;32.34
73245;BME280;61460;41.158;-73.238;2023-03-20T07:48:46;102261.21;;;23.69;32.82
73245;BME280;61460;41.158;-73.238;2023-03-20T07:51:16;102266.85;;;23.21;33.87
73245;BME280;61460;41.158;-73.238;2023-03-20T07:53:47;102271.78;;;23.61;33.59
73245;BME280;61460;41.158;-73.238;2023-03-20T07:56:17;102276.21;;;23.65;33.49
73245;BME280;61460;41.158;-73.238;2023-03-20T07:58:48;102277.24;;;23.65;33.38
73245;BME280;61460;41.158;-73.238;2023-03-20T08:01:19;102272.66;;;23.73;33.08
73245;BME280;61460;41.158;-73.238;2023-03-20T08:03:49;102271.01;;;23.50;33.04
73245;BME280;61460;41.158;-73.238;2023-03-20T08:06:19;102269.82;;;23.66;32.84
73245;BME280;61460;41.158;-73.238;2023-03-20T08:08:50;102270.36;;;23.69;32.84
73245;BME280;61460;41.158;-73.238;2023-03-20T08:11:20;102269.11;;;23.62;32.98
73245;BME280;61460;41.158;-73.238;2023-03-20T08:13:51;102267.61;;;23.54;33.22
73245;BME280;61460;41.158;-73.238;2023-03-20T08:16:21;102269.20;;;23.52;33.30
73245;BME280;61460;41.158;-73.238;2023-03-20T08:18:51;102268.44;;;23.63;33.03
73245;BME280;61460;41.158;-73.238;2023-03-20T08:21:21;102271.79;;;23.45;33.32
73245;BME280;61460;41.158;-73.238;2023-03-20T08:23:52;102278.29;;;23.24;33.63
73245;BME280;61460;41.158;-73.238;2023-03-20T08:26:23;102274.86;;;23.54;33.49
73245;BME280;61460;41.158;-73.238;2023-03-20T08:28:53;102282.92;;;23.63;33.64
73245;BME280;61460;41.158;-73.238;2023-03-20T08:31:24;102287.39;;;23.71;33.35
73245;BME280;61460;41.158;-73.238;2023-03-20T08:33:55;102287.19;;;23.72;33.08
73245;BME280;61460;41.158;-73.238;2023-03-20T08:36:24;102297.49;;;23.41;33.24
73245;BME280;61460;41.158;-73.238;2023-03-20T08:38:54;102298.97;;;23.57;32.81
73245;BME280;61460;41.158;-73.238;2023-03-20T08:41:25;102301.04;;;23.57;33.15
73245;BME280;61460;41.158;-73.238;2023-03-20T08:43:55;102304.83;;;23.58;33.14
73245;BME280;61460;41.158;-73.238;2023-03-20T08:46:25;102315.41;;;23.60;33.05
73245;BME280;61460;41.158;-73.238;2023-03-20T08:48:56;102311.24;;;23.54;33.25
73245;BME280;61460;41.158;-73.238;2023-03-20T08:51:26;102313.88;;;23.39;33.12
73245;BME280;61460;41.158;-73.238;2023-03-20T08:53:57;102317.64;;;23.44;33.24
73245;BME280;61460;41.158;-73.238;2023-03-20T08:56:27;102318.97;;;22.85;34.35
73245;BME280;61460;41.158;-73.238;2023-03-20T08:58:58;102316.67;;;23.30;33.89
73245;BME280;61460;41.158;-73.238;2023-03-20T09:01:28;102322.27;;;23.37;33.91
73245;BME280;61460;41.158;-73.238;2023-03-20T09:03:59;102327.83;;;23.45;33.83
73245;BME280;61460;41.158;-73.238;2023-03-20T09:06:29;102328.24;;;23.52;33.72
73245;BME280;61460;41.158;-73.238;2023-03-20T09:09:00;102326.74;;;23.26;33.76
73245;BME280;61460;41.158;-73.238;2023-03-20T09:11:31;102333.95;;;23.25;33.29
73245;BME280;61460;41.158;-73.238;2023-03-20T09:14:01;102332.99;;;23.49;33.10
73245;BME280;61460;41.158;-73.238;2023-03-20T09:16:32;102337.50;;;23.40;33.33
73245;BME280;61460;41.158;-73.238;2023-03-20T09:19:03;102339.62;;;23.40;33.30
73245;BME280;61460;41.158;-73.238;2023-03-20T09:21:33;102346.05;;;23.36;33.51
73245;BME280;61460;41.158;-73.238;2023-03-20T09:24:04;102348.84;;;22.94;34.41
73245;BME280;61460;41.158;-73.238;2023-03-20T09:26:34;102350.98;;;23.15;33.75
73245;BME280;61460;41.158;-73.238;2023-03-20T09:29:04;102353.30;;;23.20;33.22
73245;BME280;61460;41.158;-73.238;2023-03-20T09:31:35;102356.42;;;23.31;33.54
73245;BME280;61460;41.158;-73.238;2023-03-20T09:34:05;102363.91;;;23.26;33.51
73245;BME280;61460;41.158;-73.238;2023-03-20T09:36:35;102368.92;;;23.26;33.58
73245;BME280;61460;41.158;-73.238;2023-03-20T09:39:06;102370.64;;;23.31;33.48
73245;BME280;61460;41.158;-73.238;2023-03-20T09:41:36;102374.23;;;23.31;33.46
73245;BME280;61460;41.158;-73.238;2023-03-20T09:44:13;102373.37;;;23.02;34.14
73245;BME280;61460;41.158;-73.238;2023-03-20T09:46:47;102374.05;;;23.15;33.82
73245;BME280;61460;41.158;-73.238;2023-03-20T09:49:15;102378.49;;;23.00;33.51
73245;BME280;61460;41.158;-73.238;2023-03-20T09:51:43;102383.81;;;23.19;33.45
73245;BME280;61460;41.158;-73.238;2023-03-20T09:54:16;102381.35;;;23.20;33.51
73245;BME280;61460;41.158;-73.238;2023-03-20T09:56:39;102383.10;;;23.23;33.60
73245;BME280;61460;41.158;-73.238;2023-03-20T09:59:14;102383.63;;;23.30;33.54
73245;BME280;61460;41.158;-73.238;2023-03-20T10:01:44;102382.37;;;22.56;34.94
73245;BME280;61460;41.158;-73.238;2023-03-20T10:04:11;102377.26;;;22.97;34.66
73245;BME280;61460;41.158;-73.238;2023-03-20T10:06:41;102385.86;;;23.07;33.85
73245;BME280;61460;41.158;-73.238;2023-03-20T10:09:15;102388.99;;;23.02;33.69
73245;BME280;61460;41.158;-73.238;2023-03-20T10:11:55;102394.34;;;23.18;33.83
73245;BME280;61460;41.158;-73.238;2023-03-20T10:14:22;102394.80;;;23.11;33.85
73245;BME280;61460;41.158;-73.238;2023-03-20T10:16:52;102397.55;;;23.24;33.83
73245;BME280;61460;41.158;-73.238;2023-03-20T10:19:21;102401.68;;;23.22;33.65
73245;BME280;61460;41.158;-73.238;2023-03-20T10:21:45;102406.09;;;23.16;34.00
73245;BME280;61460;41.158;-73.238;2023-03-20T10:24:17;102402.77;;;23.23;33.85
73245;BME280;61460;41.158;-73.238;2023-03-20T10:26:46;102401.03;;;23.20;33.60
73245;BME280;61460;41.158;-73.238;2023-03-20T10:29:22;102396.42;;;23.00;33.99
73245;BME280;61460;41.158;-73.238;2023-03-20T10:31:50;102397.69;;;23.25;33.67
73245;BME280;61460;41.158;-73.238;2023-03-20T10:34:28;102399.61;;;23.22;33.92
73245;BME280;61460;41.158;-73.238;2023-03-20T10:36:55;102398.36;;;23.33;33.71
73245;BME280;61460;41.158;-73.238;2023-03-20T10:39:21;102394.48;;;23.29;34.01
73245;BME280;61460;41.158;-73.238;2023-03-20T10:41:50;102393.54;;;23.20;33.73
73245;BME280;61460;41.158;-73.238;2023-03-20T10:44:24;102396.01;;;23.21;33.74
73245;BME280;61460;41.158;-73.238;2023-03-20T10:46:50;102398.60;;;23.25;33.36
73245;BME280;61460;41.158;-73.238;2023-03-20T10:49:20;102399.31;;;23.27;33.64
73245;BME280;61460;41.158;-73.238;2023-03-20T10:51:50;102399.46;;;23.32;34.15
73245;BME280;61460;41.158;-73.238;2023-03-20T10:54:23;102401.44;;;23.28;34.77
73245;BME280;61460;41.158;-73.238;2023-03-20T10:56:51;102401.59;;;23.28;34.87
73245;BME280;61460;41.158;-73.238;2023-03-20T10:59:24;102398.80;;;23.09;34.08
73245;BME280;61460;41.158;-73.238;2023-03-20T11:01:50;102401.12;;;23.20;34.63
73245;BME280;61460;41.158;-73.238;2023-03-20T11:04:20;102406.25;;;23.20;33.99
73245;BME280;61460;41.158;-73.238;2023-03-20T11:06:56;102405.86;;;23.17;34.12
73245;BME280;61460;41.158;-73.238;2023-03-20T11:09:23;102410.85;;;23.21;34.26
73245;BME280;61460;41.158;-73.238;2023-03-20T11:11:56;102409.83;;;23.15;34.78
73245;BME280;61460;41.158;-73.238;2023-03-20T11:14:24;102409.58;;;22.95;34.68
73245;BME280;61460;41.158;-73.238;2023-03-20T11:16:54;102411.40;;;23.13;34.72
73245;BME280;61460;41.158;-73.238;2023-03-20T11:19:23;102416.46;;;23.13;34.38
73245;BME280;61460;41.158;-73.238;2023-03-20T11:21:55;102424.03;;;23.16;34.39
73245;BME280;61460;41.158;-73.238;2023-03-20T11:24:28;102426.14;;;23.24;34.50
73245;BME280;61460;41.158;-73.238;2023-03-20T11:27:03;102431.27;;;23.24;34.31
73245;BME280;61460;41.158;-73.238;2023-03-20T11:29:29;102435.18;;;23.29;34.51
73245;BME280;61460;41.158;-73.238;2023-03-20T11:32:04;102428.96;;;23.06;34.62
73245;BME280;61460;41.158;-73.238;2023-03-20T11:34:29;102437.13;;;23.03;34.44
73245;BME280;61460;41.158;-73.238;2023-03-20T11:36:58;102438.57;;;23.29;34.35
73245;BME280;61460;41.158;-73.238;2023-03-20T11:39:29;102441.59;;;23.32;34.38
73245;BME280;61460;41.158;-73.238;2023-03-20T11:41:59;102448.94;;;23.29;34.49
73245;BME280;61460;41.158;-73.238;2023-03-20T11:44:29;102449.92;;;23.29;34.54
73245;BME280;61460;41.158;-73.238;2023-03-20T11:47:00;102458.14;;;22.59;35.95
73245;BME280;61460;41.158;-73.238;2023-03-20T11:49:30;102461.43;;;23.02;35.17
73245;BME280;61460;41.158;-73.238;2023-03-20T11:52:09;102460.98;;;23.16;34.53
73245;BME280;61460;41.158;-73.238;2023-03-20T11:54:30;102469.77;;;23.23;34.23
73245;BME280;61460;41.158;-73.238;2023-03-20T11:57:00;102476.88;;;23.51;34.46
73245;BME280;61460;41.158;-73.238;2023-03-20T11:59:32;102476.30;;;23.59;34.44
73245;BME280;61460;41.158;-73.238;2023-03-20T12:02:03;102486.51;;;23.60;34.40
73245;BME280;61460;41.158;-73.238;2023-03-20T12:04:34;102481.43;;;23.57;34.51
73245;BME280;61460;41.158;-73.238;2023-03-20T12:07:05;102485.26;;;23.44;34.50
73245;BME280;61460;41.158;-73.238;2023-03-20T12:09:39;102493.99;;;23.15;34.72
73245;BME280;61460;41.158;-73.238;2023-03-20T12:12:10;102491.78;;;23.51;34.18
73245;BME280;61460;41.158;-73.238;2023-03-20T12:14:40;102497.55;;;23.36;33.99
73245;BME280;61460;41.158;-73.238;2023-03-20T12:17:19;102505.25;;;23.60;33.93
73245;BME280;61460;41.158;-73.238;2023-03-20T12:19:37;102507.88;;;23.60;33.95
73245;BME280;61460;41.158;-73.238;2023-03-20T12:22:14;102507.00;;;23.67;33.84
73245;BME280;61460;41.158;-73.238;2023-03-20T12:24:42;102503.84;;;23.72;33.74
73245;BME280;61460;41.158;-73.238;2023-03-20T12:27:17;102514.76;;;23.70;33.75
73245;BME280;61460;41.158;-73.238;2023-03-20T12:29:44;102518.09;;;23.38;33.93
73245;BME280;61460;41.158;-73.238;2023-03-20T12:32:13;102517.21;;;23.77;33.46
73245;BME280;61460;41.158;-73.238;2023-03-20T12:34:42;102520.60;;;23.90;33.35
73245;BME280;61460;41.158;-73.238;2023-03-20T12:37:11;102526.49;;;23.85;33.55
73245;BME280;61460;41.158;-73.238;2023-03-20T12:39:46;102524.47;;;23.84;33.69
73245;BME280;61460;41.158;-73.238;2023-03-20T12:42:21;102524.66;;;23.82;33.70
73245;BME280;61460;41.158;-73.238;2023-03-20T12:44:46;102523.34;;;23.89;33.63
73245;BME280;61460;41.158;-73.238;2023-03-20T12:47:26;102524.90;;;23.86;33.56
73245;BME280;61460;41.158;-73.238;2023-03-20T12:49:51;102522.58;;;23.83;33.60
73245;BME280;61460;41.158;-73.238;2023-03-20T12:52:22;102527.00;;;23.90;33.40
73245;BME280;61460;41.158;-73.238;2023-03-20T12:57:21;102533.48;;;23.42;33.93
73245;BME280;61460;41.158;-73.238;2023-03-20T13:00:02;102530.52;;;23.92;34.07